sensor_id;sensor_type;location;lat;lon;timestamp;pressure;altitude;pressure_sealevel;temperature;humidity
41800;BME280;27468;47.460;19.034;2024-02-16T00:02:15;101171.97;;;10.12;67.87
41800;BME280;27468;47.460;19.034;2024-02-16T00:04:40;101158.78;;;10.12;67.48
41800;BME280;27468;47.460;19.034;2024-02-16T00:07:06;101143.00;;;10.07;67.36
41800;BME280;27468;47.460;19.034;2024-02-16T00:09:31;101140.38;;;10.07;66.78
41800;BME280;27468;47.460;19.034;2024-02-16T00:11:58;101136.09;;;9.83;67.93
41800;BME280;27468;47.460;19.034;2024-02-16T00:14:23;101130.88;;;9.80;68.19
41800;BME280;27468;47.460;19.034;2024-02-16T00:16:49;101166.75;;;10.01;67.86
41800;BME280;27468;47.460;19.034;2024-02-16T00:19:15;101136.03;;;9.94;67.88
41800;BME280;27468;47.460;19.034;2024-02-16T00:21:40;101132.47;;;10.09;67.24
41800;BME280;27468;47.460;19.034;2024-02-16T00:24:07;101138.56;;;10.14;66.33
41800;BME280;27468;47.460;19.034;2024-02-16T00:26:33;101148.22;;;10.15;66.84
41800;BME280;27468;47.460;19.034;2024-02-16T00:28:58;101141.19;;;10.21;67.13
41800;BME280;27468;47.460;19.034;2024-02-16T00:31:23;101125.44;;;10.05;67.06
41800;BME280;27468;47.460;19.034;2024-02-16T00:33:49;101108.09;;;9.70;67.02
41800;BME280;27468;47.460;19.034;2024-02-16T00:36:14;101124.75;;;9.72;67.06
41800;BME280;27468;47.460;19.034;2024-02-16T00:38:39;101115.13;;;9.68;67.13
41800;BME280;27468;47.460;19.034;2024-02-16T00:41:05;101153.56;;;10.03;66.83
41800;BME280;27468;47.460;19.034;2024-02-16T00:43:30;101095.78;;;9.77;66.37
41800;BME280;27468;47.460;19.034;2024-02-16T00:45:55;101139.53;;;9.98;66.28
41800;BME280;27468;47.460;19.034;2024-02-16T00:48:21;101139.44;;;10.14;65.69
41800;BME280;27468;47.460;19.034;2024-02-16T00:50:46;101144.69;;;10.25;65.91
41800;BME280;27468;47.460;19.034;2024-02-16T00:53:12;101108.81;;;9.97;66.40
41800;BME280;27468;47.460;19.034;2024-02-16T00:55:37;101127.19;;;10.06;65.63
41800;BME280;27468;47.460;19.034;2024-02-16T00:58:03;101158.78;;;10.19;65.99
41800;BME280;27468;47.460;19.034;2024-02-16T01:00:30;101125.47;;;10.00;66.64
41800;BME280;27468;47.460;19.034;2024-02-16T01:02:55;101144.72;;;10.14;66.90
41800;BME280;27468;47.460;19.034;2024-02-16T01:05:20;101142.97;;;10.19;66.56
41800;BME280;27468;47.460;19.034;2024-02-16T01:07:48;101128.97;;;10.07;66.01
41800;BME280;27468;47.460;19.034;2024-02-16T01:10:13;101122.00;;;9.90;66.25
41800;BME280;27468;47.460;19.034;2024-02-16T01:12:38;101142.97;;;10.13;66.28
41800;BME280;27468;47.460;19.034;2024-02-16T01:15:04;101102.59;;;10.08;65.82
41800;BME280;27468;47.460;19.034;2024-02-16T01:17:30;101141.22;;;10.15;65.36
41800;BME280;27468;47.460;19.034;2024-02-16T01:19:57;101124.56;;;10.07;65.50
41800;BME280;27468;47.460;19.034;2024-02-16T01:22:23;101150.91;;;10.07;65.62
41800;BME280;27468;47.460;19.034;2024-02-16T01:24:48;101141.25;;;10.09;65.79
41800;BME280;27468;47.460;19.034;2024-02-16T01:27:14;101131.53;;;10.17;65.95
41800;BME280;27468;47.460;19.034;2024-02-16T01:29:39;101150.88;;;10.22;65.55
41800;BME280;27468;47.460;19.034;2024-02-16T01:32:05;101139.59;;;9.87;65.78
41800;BME280;27468;47.460;19.034;2024-02-16T01:34:30;101112.47;;;9.73;66.53
41800;BME280;27468;47.460;19.034;2024-02-16T01:36:56;101145.72;;;9.89;67.15
41800;BME280;27468;47.460;19.034;2024-02-16T01:39:22;101139.72;;;9.64;67.52
41800;BME280;27468;47.460;19.034;2024-02-16T01:41:47;101124.88;;;9.45;68.72
41800;BME280;27468;47.460;19.034;2024-02-16T01:44:13;101154.69;;;9.44;68.16
41800;BME280;27468;47.460;19.034;2024-02-16T01:46:40;101114.44;;;9.17;68.37
41800;BME280;27468;47.460;19.034;2024-02-16T01:49:05;101133.75;;;9.06;69.84
41800;BME280;27468;47.460;19.034;2024-02-16T01:51:33;101114.47;;;8.88;70.11
41800;BME280;27468;47.460;19.034;2024-02-16T01:53:58;101132.00;;;8.89;70.34
41800;BME280;27468;47.460;19.034;2024-02-16T01:56:26;101121.50;;;8.85;70.25
41800;BME280;27468;47.460;19.034;2024-02-16T01:58:52;101091.75;;;8.49;71.04
41800;BME280;27468;47.460;19.034;2024-02-16T02:01:17;101126.78;;;8.65;70.90
41800;BME280;27468;47.460;19.034;2024-02-16T02:03:42;101108.38;;;8.56;71.55
41800;BME280;27468;47.460;19.034;2024-02-16T02:06:08;101096.13;;;8.46;71.83
41800;BME280;27468;47.460;19.034;2024-02-16T02:08:34;101090.84;;;8.35;71.61
41800;BME280;27468;47.460;19.034;2024-02-16T02:10:59;101135.53;;;8.44;72.45
41800;BME280;27468;47.460;19.034;2024-02-16T02:13:24;101093.44;;;8.18;72.71
41800;BME280;27468;47.460;19.034;2024-02-16T02:15:50;101132.91;;;8.44;73.04
41800;BME280;27468;47.460;19.034;2024-02-16T02:18:15;101083.81;;;8.20;73.06
41800;BME280;27468;47.460;19.034;2024-02-16T02:20:40;101113.59;;;8.28;73.63
41800;BME280;27468;47.460;19.034;2024-02-16T02:23:06;101113.56;;;8.19;74.02
41800;BME280;27468;47.460;19.034;2024-02-16T02:25:31;101133.72;;;8.23;74.75
41800;BME280;27468;47.460;19.034;2024-02-16T02:27:56;101122.31;;;8.15;74.57
41800;BME280;27468;47.460;19.034;2024-02-16T02:30:22;101089.88;;;7.80;75.40
41800;BME280;27468;47.460;19.034;2024-02-16T02:32:49;101128.44;;;8.10;75.50
41800;BME280;27468;47.460;19.034;2024-02-16T02:35:16;101121.44;;;8.04;76.06
41800;BME280;27468;47.460;19.034;2024-02-16T02:37:42;101098.63;;;7.86;75.74
41800;BME280;27468;47.460;19.034;2024-02-16T02:40:08;101128.41;;;7.93;76.11
41800;BME280;27468;47.460;19.034;2024-02-16T02:42:34;101138.03;;;7.88;76.44
41800;BME280;27468;47.460;19.034;2024-02-16T02:45:00;101096.84;;;7.73;76.62
41800;BME280;27468;47.460;19.034;2024-02-16T02:47:25;101125.72;;;7.76;77.09
41800;BME280;27468;47.460;19.034;2024-02-16T02:49:51;101083.66;;;7.47;77.09
41800;BME280;27468;47.460;19.034;2024-02-16T02:52:16;101146.75;;;7.79;77.70
41800;BME280;27468;47.460;19.034;2024-02-16T02:54:42;101104.63;;;7.53;77.79
41800;BME280;27468;47.460;19.034;2024-02-16T02:57:07;101114.25;;;7.54;78.01
41800;BME280;27468;47.460;19.034;2024-02-16T02:59:33;101123.88;;;7.54;77.77
41800;BME280;27468;47.460;19.034;2024-02-16T03:01:58;101094.97;;;7.34;78.07
41800;BME280;27468;47.460;19.034;2024-02-16T03:04:23;101085.25;;;7.18;78.32
41800;BME280;27468;47.460;19.034;2024-02-16T03:06:51;101103.66;;;7.24;78.74
41800;BME280;27468;47.460;19.034;2024-02-16T03:09:17;101140.47;;;7.42;79.04
41800;BME280;27468;47.460;19.034;2024-02-16T03:11:42;101125.50;;;7.21;79.12
41800;BME280;27468;47.460;19.034;2024-02-16T03:14:07;101103.59;;;7.15;79.82
41800;BME280;27468;47.460;19.034;2024-02-16T03:16:33;101132.44;;;7.15;80.38
41800;BME280;27468;47.460;19.034;2024-02-16T03:18:58;101148.22;;;7.24;80.73
41800;BME280;27468;47.460;19.034;2024-02-16T03:21:25;101113.06;;;6.90;80.71
41800;BME280;27468;47.460;19.034;2024-02-16T03:23:50;101145.50;;;7.09;81.36
41800;BME280;27468;47.460;19.034;2024-02-16T03:26:19;101150.81;;;7.16;81.31
41800;BME280;27468;47.460;19.034;2024-02-16T03:28:48;101123.59;;;6.97;81.38
41800;BME280;27468;47.460;19.034;2024-02-16T03:33:42;101118.22;;;6.78;81.93
41800;BME280;27468;47.460;19.034;2024-02-16T03:36:08;101090.25;;;6.74;81.72
41800;BME280;27468;47.460;19.034;2024-02-16T03:38:33;101139.28;;;6.94;81.86
41800;BME280;27468;47.460;19.034;2024-02-16T03:40:59;101148.06;;;7.00;81.99
41800;BME280;27468;47.460;19.034;2024-02-16T03:43:24;101138.41;;;6.91;82.06
41800;BME280;27468;47.460;19.034;2024-02-16T03:45:50;101128.66;;;6.72;83.05
41800;BME280;27468;47.460;19.034;2024-02-16T03:48:15;101142.66;;;6.75;82.87
41800;BME280;27468;47.460;19.034;2024-02-16T03:50:41;101125.91;;;6.58;83.90
41800;BME280;27468;47.460;19.034;2024-02-16T03:53:06;101139.09;;;6.67;83.96
41800;BME280;27468;47.460;19.034;2024-02-16T03:55:31;101134.78;;;6.74;83.09
41800;BME280;27468;47.460;19.034;2024-02-16T03:58:01;101132.00;;;6.55;83.56
41800;BME280;27468;47.460;19.034;2024-02-16T04:00:27;101146.06;;;6.65;84.07
41800;BME280;27468;47.460;19.034;2024-02-16T04:02:53;101116.16;;;6.42;83.86
41800;BME280;27468;47.460;19.034;2024-02-16T04:05:18;101129.25;;;6.42;84.06
41800;BME280;27468;47.460;19.034;2024-02-16T04:07:43;101157.25;;;6.47;84.84
41800;BME280;27468;47.460;19.034;2024-02-16T04:10:09;101157.31;;;6.53;84.37
41800;BME280;27468;47.460;19.034;2024-02-16T04:12:34;101143.22;;;6.39;84.49
41800;BME280;27468;47.460;19.034;2024-02-16T04:15:03;101137.91;;;6.30;84.61
41800;BME280;27468;47.460;19.034;2024-02-16T04:17:29;101133.59;;;6.38;84.05
41800;BME280;27468;47.460;19.034;2024-02-16T04:19:54;101166.00;;;6.48;84.51
41800;BME280;27468;47.460;19.034;2024-02-16T04:22:19;101105.41;;;6.10;84.67
41800;BME280;27468;47.460;19.034;2024-02-16T04:24:45;101146.59;;;6.24;84.92
41800;BME280;27468;47.460;19.034;2024-02-16T04:27:11;101161.47;;;6.28;85.53
41800;BME280;27468;47.460;19.034;2024-02-16T04:29:36;101161.44;;;6.27;84.97
41800;BME280;27468;47.460;19.034;2024-02-16T04:32:02;101113.97;;;5.95;85.18
41800;BME280;27468;47.460;19.034;2024-02-16T04:34:27;101175.47;;;6.32;85.27
41800;BME280;27468;47.460;19.034;2024-02-16T04:36:53;101140.25;;;6.04;85.45
41800;BME280;27468;47.460;19.034;2024-02-16T04:39:18;101085.84;;;5.79;85.33
41800;BME280;27468;47.460;19.034;2024-02-16T04:41:44;101169.19;;;6.16;85.26
41800;BME280;27468;47.460;19.034;2024-02-16T04:44:10;101135.78;;;5.94;85.61
41800;BME280;27468;47.460;19.034;2024-02-16T04:46:35;101141.78;;;5.87;85.72
41800;BME280;27468;47.460;19.034;2024-02-16T04:49:00;101155.72;;;5.87;85.84
41800;BME280;27468;47.460;19.034;2024-02-16T04:51:26;101125.94;;;5.73;86.42
41800;BME280;27468;47.460;19.034;2024-02-16T04:53:51;101119.84;;;5.73;85.96
41800;BME280;27468;47.460;19.034;2024-02-16T04:56:16;101155.50;;;5.66;86.90
41800;BME280;27468;47.460;19.034;2024-02-16T04:58:42;101184.47;;;5.84;87.70
41800;BME280;27468;47.460;19.034;2024-02-16T05:01:08;101156.50;;;5.76;87.40
41800;BME280;27468;47.460;19.034;2024-02-16T05:03:33;101188.97;;;5.91;87.10
41800;BME280;27468;47.460;19.034;2024-02-16T05:06:00;101175.78;;;5.87;87.30
41800;BME280;27468;47.460;19.034;2024-02-16T05:08:25;101144.25;;;5.73;87.49
41800;BME280;27468;47.460;19.034;2024-02-16T05:10:51;101163.50;;;5.81;87.28
41800;BME280;27468;47.460;19.034;2024-02-16T05:13:16;101147.66;;;5.68;87.37
41800;BME280;27468;47.460;19.034;2024-02-16T05:15:42;101151.13;;;5.63;87.63
41800;BME280;27468;47.460;19.034;2024-02-16T05:18:08;101171.22;;;5.68;87.94
41800;BME280;27468;47.460;19.034;2024-02-16T05:20:36;101169.53;;;5.73;87.96
41800;BME280;27468;47.460;19.034;2024-02-16T05:23:01;101150.00;;;5.45;88.45
41800;BME280;27468;47.460;19.034;2024-02-16T05:25:27;101164.84;;;5.47;88.29
41800;BME280;27468;47.460;19.034;2024-02-16T05:27:52;101153.44;;;5.42;88.76
41800;BME280;27468;47.460;19.034;2024-02-16T05:30:17;101180.69;;;5.58;89.38
41800;BME280;27468;47.460;19.034;2024-02-16T05:32:44;101159.66;;;5.50;88.62
41800;BME280;27468;47.460;19.034;2024-02-16T05:35:10;101161.34;;;5.47;88.79
41800;BME280;27468;47.460;19.034;2024-02-16T05:37:47;101122.66;;;5.21;88.96
41800;BME280;27468;47.460;19.034;2024-02-16T05:40:15;101189.31;;;5.52;88.98
41800;BME280;27468;47.460;19.034;2024-02-16T05:42:52;101169.25;;;5.50;88.70
41800;BME280;27468;47.460;19.034;2024-02-16T05:45:19;101178.88;;;5.54;88.86
41800;BME280;27468;47.460;19.034;2024-02-16T05:47:45;101192.84;;;5.56;89.19
41800;BME280;27468;47.460;19.034;2024-02-16T05:50:14;101159.38;;;5.30;89.47
41800;BME280;27468;47.460;19.034;2024-02-16T05:52:41;101195.47;;;5.56;89.90
41800;BME280;27468;47.460;19.034;2024-02-16T05:55:10;101193.69;;;5.52;90.50
41800;BME280;27468;47.460;19.034;2024-02-16T05:57:37;101172.66;;;5.46;90.53
41800;BME280;27468;47.460;19.034;2024-02-16T06:00:04;101194.63;;;5.57;90.28
41800;BME280;27468;47.460;19.034;2024-02-16T06:02:31;101186.63;;;5.48;90.98
41800;BME280;27468;47.460;19.034;2024-02-16T06:04:56;101165.53;;;5.34;91.02
41800;BME280;27468;47.460;19.034;2024-02-16T06:07:22;101188.25;;;5.38;91.49
41800;BME280;27468;47.460;19.034;2024-02-16T06:09:48;101213.50;;;5.38;92.82
41800;BME280;27468;47.460;19.034;2024-02-16T06:12:13;101154.94;;;5.25;92.67
41800;BME280;27468;47.460;19.034;2024-02-16T06:14:40;101187.41;;;5.41;92.66
41800;BME280;27468;47.460;19.034;2024-02-16T06:17:06;101187.56;;;5.51;92.45
41800;BME280;27468;47.460;19.034;2024-02-16T06:19:33;101213.84;;;5.60;93.44
41800;BME280;27468;47.460;19.034;2024-02-16T06:21:58;101220.91;;;5.66;93.16
41800;BME280;27468;47.460;19.034;2024-02-16T06:24:24;101193.94;;;5.70;92.77
41800;BME280;27468;47.460;19.034;2024-02-16T06:26:50;101130.75;;;5.40;92.55
41800;BME280;27468;47.460;19.034;2024-02-16T06:29:18;101231.75;;;5.95;91.84
41800;BME280;27468;47.460;19.034;2024-02-16T06:31:47;101207.97;;;5.78;92.70
41800;BME280;27468;47.460;19.034;2024-02-16T06:34:15;101225.53;;;5.88;92.43
41800;BME280;27468;47.460;19.034;2024-02-16T06:36:41;101178.09;;;5.59;91.68
41800;BME280;27468;47.460;19.034;2024-02-16T06:39:07;101218.47;;;5.83;90.90
41800;BME280;27468;47.460;19.034;2024-02-16T06:41:32;101229.78;;;5.77;90.49
41800;BME280;27468;47.460;19.034;2024-02-16T06:43:58;101211.34;;;5.70;90.36
41800;BME280;27468;47.460;19.034;2024-02-16T06:46:23;101234.13;;;5.80;90.58
41800;BME280;27468;47.460;19.034;2024-02-16T06:48:50;101232.44;;;5.83;90.02
41800;BME280;27468;47.460;19.034;2024-02-16T06:51:15;101209.72;;;5.79;89.81
41800;BME280;27468;47.460;19.034;2024-02-16T06:53:40;101227.38;;;5.92;89.18
41800;BME280;27468;47.460;19.034;2024-02-16T06:56:07;101228.31;;;5.99;87.88
41800;BME280;27468;47.460;19.034;2024-02-16T06:58:33;101207.31;;;5.94;87.00
41800;BME280;27468;47.460;19.034;2024-02-16T07:00:59;101251.19;;;6.12;86.35
41800;BME280;27468;47.460;19.034;2024-02-16T07:03:28;101242.63;;;6.27;85.44
41800;BME280;27468;47.460;19.034;2024-02-16T07:05:54;101225.13;;;6.24;85.71
41800;BME280;27468;47.460;19.034;2024-02-16T07:08:20;101221.66;;;6.25;85.20
41800;BME280;27468;47.460;19.034;2024-02-16T07:10:45;101238.34;;;6.37;84.16
41800;BME280;27468;47.460;19.034;2024-02-16T07:13:12;101210.28;;;6.22;83.08
41800;BME280;27468;47.460;19.034;2024-02-16T07:15:38;101237.63;;;6.51;82.03
41800;BME280;27468;47.460;19.034;2024-02-16T07:18:04;101242.94;;;6.59;80.58
41800;BME280;27468;47.460;19.034;2024-02-16T07:20:30;101245.56;;;6.59;79.27
41800;BME280;27468;47.460;19.034;2024-02-16T07:22:55;101228.13;;;6.61;79.32
41800;BME280;27468;47.460;19.034;2024-02-16T07:25:20;101253.63;;;6.79;78.06
41800;BME280;27468;47.460;19.034;2024-02-16T07:27:45;101244.91;;;6.80;78.35
41800;BME280;27468;47.460;19.034;2024-02-16T07:30:11;101266.00;;;6.92;77.73
41800;BME280;27468;47.460;19.034;2024-02-16T07:32:38;101204.56;;;6.62;76.39
41800;BME280;27468;47.460;19.034;2024-02-16T07:35:03;101257.06;;;6.73;75.98
41800;BME280;27468;47.460;19.034;2024-02-16T07:37:29;101257.28;;;6.97;76.29
41800;BME280;27468;47.460;19.034;2024-02-16T07:39:55;101241.47;;;6.85;76.82
41800;BME280;27468;47.460;19.034;2024-02-16T07:42:20;101227.59;;;7.00;76.66
41800;BME280;27468;47.460;19.034;2024-02-16T07:44:46;101262.81;;;7.33;76.17
41800;BME280;27468;47.460;19.034;2024-02-16T07:47:11;101254.00;;;7.24;74.94
41800;BME280;27468;47.460;19.034;2024-02-16T07:49:38;101202.34;;;7.13;74.13
41800;BME280;27468;47.460;19.034;2024-02-16T07:52:05;101218.16;;;7.23;73.49
41800;BME280;27468;47.460;19.034;2024-02-16T07:54:30;101223.31;;;7.13;73.91
41800;BME280;27468;47.460;19.034;2024-02-16T07:56:55;101246.19;;;7.29;74.35
41800;BME280;27468;47.460;19.034;2024-02-16T07:59:21;101240.19;;;7.47;74.18
41800;BME280;27468;47.460;19.034;2024-02-16T08:01:47;101255.06;;;7.46;73.28
41800;BME280;27468;47.460;19.034;2024-02-16T08:04:12;101207.69;;;7.25;72.89
41800;BME280;27468;47.460;19.034;2024-02-16T08:06:38;101204.22;;;7.31;72.75
41800;BME280;27468;47.460;19.034;2024-02-16T08:09:03;101256.88;;;7.61;72.52
41800;BME280;27468;47.460;19.034;2024-02-16T08:11:29;101255.09;;;7.57;71.24
41800;BME280;27468;47.460;19.034;2024-02-16T08:13:54;101195.53;;;7.36;71.17
41800;BME280;27468;47.460;19.034;2024-02-16T08:16:21;101236.78;;;7.63;70.70
41800;BME280;27468;47.460;19.034;2024-02-16T08:18:46;101207.84;;;7.49;69.93
41800;BME280;27468;47.460;19.034;2024-02-16T08:21:11;101239.50;;;7.83;69.96
41800;BME280;27468;47.460;19.034;2024-02-16T08:23:37;101238.66;;;7.88;69.44
41800;BME280;27468;47.460;19.034;2024-02-16T08:26:03;101220.28;;;7.85;67.57
41800;BME280;27468;47.460;19.034;2024-02-16T08:28:29;101235.22;;;7.99;67.51
41800;BME280;27468;47.460;19.034;2024-02-16T08:30:54;101261.50;;;8.09;68.02
41800;BME280;27468;47.460;19.034;2024-02-16T08:33:19;101208.94;;;7.97;67.11
41800;BME280;27468;47.460;19.034;2024-02-16T08:35:45;101228.22;;;8.04;66.39
41800;BME280;27468;47.460;19.034;2024-02-16T08:38:10;101224.75;;;8.14;65.33
41800;BME280;27468;47.460;19.034;2024-02-16T08:40:39;101195.81;;;7.95;64.26
41800;BME280;27468;47.460;19.034;2024-02-16T08:43:05;101259.00;;;8.34;64.33
41800;BME280;27468;47.460;19.034;2024-02-16T08:45:32;101257.28;;;8.39;63.73
41800;BME280;27468;47.460;19.034;2024-02-16T08:47:58;101282.69;;;8.47;63.33
41800;BME280;27468;47.460;19.034;2024-02-16T08:50:23;101233.59;;;8.34;62.38
41800;BME280;27468;47.460;19.034;2024-02-16T08:52:49;101237.16;;;8.50;61.29
41800;BME280;27468;47.460;19.034;2024-02-16T08:55:15;101261.72;;;8.79;60.25
41800;BME280;27468;47.460;19.034;2024-02-16T08:57:41;101249.44;;;8.74;59.93
41800;BME280;27468;47.460;19.034;2024-02-16T09:00:07;101228.41;;;8.51;60.63
41800;BME280;27468;47.460;19.034;2024-02-16T09:02:32;101263.50;;;8.89;58.82
41800;BME280;27468;47.460;19.034;2024-02-16T09:04:59;101236.31;;;8.80;58.41
41800;BME280;27468;47.460;19.034;2024-02-16T09:07:24;101231.06;;;9.01;58.94
41800;BME280;27468;47.460;19.034;2024-02-16T09:09:51;101255.63;;;9.11;58.48
41800;BME280;27468;47.460;19.034;2024-02-16T09:12:16;101242.47;;;8.96;58.88
41800;BME280;27468;47.460;19.034;2024-02-16T09:14:41;101245.09;;;8.96;58.49
41800;BME280;27468;47.460;19.034;2024-02-16T09:17:07;101240.72;;;8.94;57.26
41800;BME280;27468;47.460;19.034;2024-02-16T09:19:32;101257.38;;;9.13;56.82
41800;BME280;27468;47.460;19.034;2024-02-16T09:21:59;101270.50;;;9.38;56.19
41800;BME280;27468;47.460;19.034;2024-02-16T09:24:28;101255.59;;;9.37;56.18
41800;BME280;27468;47.460;19.034;2024-02-16T09:26:55;101262.59;;;9.51;56.24
41800;BME280;27468;47.460;19.034;2024-02-16T09:29:21;101263.47;;;9.47;56.03
41800;BME280;27468;47.460;19.034;2024-02-16T09:31:49;101262.59;;;9.57;56.23
41800;BME280;27468;47.460;19.034;2024-02-16T09:34:14;101247.69;;;9.55;55.76
41800;BME280;27468;47.460;19.034;2024-02-16T09:36:40;101232.75;;;9.58;55.98
41800;BME280;27468;47.460;19.034;2024-02-16T09:39:05;101241.53;;;9.47;56.25
41800;BME280;27468;47.460;19.034;2024-02-16T09:41:34;101230.09;;;9.66;56.89
41800;BME280;27468;47.460;19.034;2024-02-16T09:44:01;101264.28;;;9.83;55.68
41800;BME280;27468;47.460;19.034;2024-02-16T09:46:27;101270.41;;;9.86;54.64
41800;BME280;27468;47.460;19.034;2024-02-16T09:48:55;101251.97;;;9.86;54.97
41800;BME280;27468;47.460;19.034;2024-02-16T09:51:21;101265.97;;;10.07;54.36
41800;BME280;27468;47.460;19.034;2024-02-16T09:53:50;101257.19;;;9.99;53.99
41800;BME280;27468;47.460;19.034;2024-02-16T09:56:20;101239.66;;;9.91;53.39
41800;BME280;27468;47.460;19.034;2024-02-16T09:58:45;101259.78;;;10.15;53.01
41800;BME280;27468;47.460;19.034;2024-02-16T10:01:18;101212.41;;;9.97;52.75
41800;BME280;27468;47.460;19.034;2024-02-16T10:03:47;101245.72;;;10.21;52.83
41800;BME280;27468;47.460;19.034;2024-02-16T10:06:13;101247.50;;;10.22;52.53
41800;BME280;27468;47.460;19.034;2024-02-16T10:08:50;101223.75;;;10.19;52.48
41800;BME280;27468;47.460;19.034;2024-02-16T10:11:17;101264.03;;;10.47;52.21
41800;BME280;27468;47.460;19.034;2024-02-16T10:14:03;101235.09;;;10.39;52.27
41800;BME280;27468;47.460;19.034;2024-02-16T10:16:29;101255.16;;;10.63;51.98
41800;BME280;27468;47.460;19.034;2024-02-16T10:19:08;101259.53;;;10.67;52.12
41800;BME280;27468;47.460;19.034;2024-02-16T10:21:35;101243.66;;;10.73;51.42
41800;BME280;27468;47.460;19.034;2024-02-16T10:24:02;101228.75;;;10.71;51.41
41800;BME280;27468;47.460;19.034;2024-02-16T10:26:28;101240.91;;;10.91;51.64
41800;BME280;27468;47.460;19.034;2024-02-16T10:28:55;101213.66;;;10.88;51.51
41800;BME280;27468;47.460;19.034;2024-02-16T10:31:22;101213.63;;;10.94;51.69
41800;BME280;27468;47.460;19.034;2024-02-16T10:33:56;101233.75;;;11.04;51.57
41800;BME280;27468;47.460;19.034;2024-02-16T10:36:22;101229.13;;;11.29;51.47
41800;BME280;27468;47.460;19.034;2024-02-16T10:38:51;101223.91;;;11.24;50.56
41800;BME280;27468;47.460;19.034;2024-02-16T10:41:18;101219.47;;;11.28;50.81
41800;BME280;27468;47.460;19.034;2024-02-16T10:43:48;101226.47;;;11.34;51.60
41800;BME280;27468;47.460;19.034;2024-02-16T10:46:15;101220.28;;;11.36;51.08
41800;BME280;27468;47.460;19.034;2024-02-16T10:48:41;101208.88;;;11.31;51.05
41800;BME280;27468;47.460;19.034;2024-02-16T10:51:08;101229.16;;;11.28;50.97
41800;BME280;27468;47.460;19.034;2024-02-16T10:53:35;101215.88;;;11.35;51.05
41800;BME280;27468;47.460;19.034;2024-02-16T10:56:01;101171.22;;;11.14;51.27
41800;BME280;27468;47.460;19.034;2024-02-16T10:58:29;101184.31;;;11.23;51.77
41800;BME280;27468;47.460;19.034;2024-02-16T11:00:56;101192.06;;;11.40;52.00
41800;BME280;27468;47.460;19.034;2024-02-16T11:03:26;101203.44;;;11.48;52.29
41800;BME280;27468;47.460;19.034;2024-02-16T11:05:52;101174.47;;;11.40;51.80
41800;BME280;27468;47.460;19.034;2024-02-16T11:08:19;101172.63;;;11.50;51.43
41800;BME280;27468;47.460;19.034;2024-02-16T11:13:25;101179.34;;;11.75;51.24
41800;BME280;27468;47.460;19.034;2024-02-16T11:16:06;101181.06;;;11.82;51.56
41800;BME280;27468;47.460;19.034;2024-02-16T11:18:37;101181.13;;;11.72;51.19
41800;BME280;27468;47.460;19.034;2024-02-16T11:21:03;101166.13;;;11.78;51.03
41800;BME280;27468;47.460;19.034;2024-02-16T11:23:34;101154.72;;;11.73;51.39
41800;BME280;27468;47.460;19.034;2024-02-16T11:26:04;101167.75;;;11.90;50.98
41800;BME280;27468;47.460;19.034;2024-02-16T11:28:34;101166.78;;;11.97;50.60
41800;BME280;27468;47.460;19.034;2024-02-16T11:31:03;101160.69;;;11.92;51.47
41800;BME280;27468;47.460;19.034;2024-02-16T11:33:29;101182.50;;;12.06;51.65
41800;BME280;27468;47.460;19.034;2024-02-16T11:35:56;101148.16;;;12.06;51.09
41800;BME280;27468;47.460;19.034;2024-02-16T11:38:23;101153.47;;;12.05;50.48
41800;BME280;27468;47.460;19.034;2024-02-16T11:40:59;101150.91;;;11.97;51.18
41800;BME280;27468;47.460;19.034;2024-02-16T11:43:25;101120.41;;;11.70;51.28
41800;BME280;27468;47.460;19.034;2024-02-16T11:45:52;101126.34;;;11.90;51.20
41800;BME280;27468;47.460;19.034;2024-02-16T11:48:27;101159.53;;;12.13;50.99
41800;BME280;27468;47.460;19.034;2024-02-16T11:51:03;101091.06;;;11.95;50.56
41800;BME280;27468;47.460;19.034;2024-02-16T11:53:29;101147.84;;;12.26;50.59
41800;BME280;27468;47.460;19.034;2024-02-16T11:55:55;101152.94;;;12.40;50.51
41800;BME280;27468;47.460;19.034;2024-02-16T11:58:20;101151.31;;;12.31;50.07
41800;BME280;27468;47.460;19.034;2024-02-16T12:00:47;101142.66;;;12.18;50.33
41800;BME280;27468;47.460;19.034;2024-02-16T12:03:23;101146.19;;;12.19;50.41
41800;BME280;27468;47.460;19.034;2024-02-16T12:05:53;101139.97;;;12.21;50.94
41800;BME280;27468;47.460;19.034;2024-02-16T12:08:19;101098.84;;;12.05;51.19
41800;BME280;27468;47.460;19.034;2024-02-16T12:10:46;101131.97;;;12.28;50.71
41800;BME280;27468;47.460;19.034;2024-02-16T12:13:12;101124.81;;;12.34;50.29
41800;BME280;27468;47.460;19.034;2024-02-16T12:15:38;101125.56;;;12.42;50.55
41800;BME280;27468;47.460;19.034;2024-02-16T12:18:05;101096.59;;;12.35;50.28
41800;BME280;27468;47.460;19.034;2024-02-16T12:20:31;101113.06;;;12.53;50.13
41800;BME280;27468;47.460;19.034;2024-02-16T12:22:57;101085.13;;;12.36;50.12
41800;BME280;27468;47.460;19.034;2024-02-16T12:25:24;101110.31;;;12.60;49.71
41800;BME280;27468;47.460;19.034;2024-02-16T12:27:49;101095.41;;;12.55;49.51
41800;BME280;27468;47.460;19.034;2024-02-16T12:30:15;101104.25;;;12.53;50.06
41800;BME280;27468;47.460;19.034;2024-02-16T12:32:41;101061.19;;;12.45;49.97
41800;BME280;27468;47.460;19.034;2024-02-16T12:35:07;101092.41;;;12.74;49.84
41800;BME280;27468;47.460;19.034;2024-02-16T12:37:32;101070.09;;;12.39;49.29
41800;BME280;27468;47.460;19.034;2024-02-16T12:39:58;101110.41;;;12.53;49.72
41800;BME280;27468;47.460;19.034;2024-02-16T12:42:24;101078.53;;;12.63;49.51
41800;BME280;27468;47.460;19.034;2024-02-16T12:44:49;101074.97;;;12.65;49.33
41800;BME280;27468;47.460;19.034;2024-02-16T12:47:14;101088.09;;;12.70;49.10
41800;BME280;27468;47.460;19.034;2024-02-16T12:49:39;101091.75;;;12.63;49.43